sensor_id;sensor_type;location;lat;lon;timestamp;P1;durP1;ratioP1;P2;durP2;ratioP2
61356;SDS011;47227;46.752;23.576;2023-02-28T00:00:45;15.80;;;11.10;;
61356;SDS011;47227;46.752;23.576;2023-02-28T00:04:16;15.80;;;10.90;;
61356;SDS011;47227;46.752;23.576;2023-02-28T00:07:41;16.30;;;11.20;;
61356;SDS011;47227;46.752;23.576;2023-02-28T00:11:10;16.80;;;11.90;;
61356;SDS011;47227;46.752;23.576;2023-02-28T00:14:34;17.60;;;12.30;;
61356;SDS011;47227;46.752;23.576;2023-02-28T00:17:59;17.50;;;12.20;;
61356;SDS011;47227;46.752;23.576;2023-02-28T00:21:38;17.00;;;11.90;;
61356;SDS011;47227;46.752;23.576;2023-02-28T00:25:04;18.00;;;11.80;;
61356;SDS011;47227;46.752;23.576;2023-02-28T00:28:34;17.60;;;12.60;;
61356;SDS011;47227;46.752;23.576;2023-02-28T00:31:53;18.50;;;12.90;;
61356;SDS011;47227;46.752;23.576;2023-02-28T00:35:21;18.60;;;13.10;;
61356;SDS011;47227;46.752;23.576;2023-02-28T00:38:52;18.20;;;12.30;;
61356;SDS011;47227;46.752;23.576;2023-02-28T00:42:42;20.90;;;12.50;;
61356;SDS011;47227;46.752;23.576;2023-02-28T00:46:35;20.10;;;12.90;;
61356;SDS011;47227;46.752;23.576;2023-02-28T00:50:09;21.00;;;13.00;;
61356;SDS011;47227;46.752;23.576;2023-02-28T00:53:31;23.20;;;13.70;;
61356;SDS011;47227;46.752;23.576;2023-02-28T00:56:59;22.10;;;14.00;;
61356;SDS011;47227;46.752;23.576;2023-02-28T01:00:30;23.40;;;14.50;;
61356;SDS011;47227;46.752;23.576;2023-02-28T01:03:55;23.90;;;15.10;;
61356;SDS011;47227;46.752;23.576;2023-02-28T01:07:20;21.60;;;14.20;;
61356;SDS011;47227;46.752;23.576;2023-02-28T01:11:06;23.20;;;14.40;;
61356;SDS011;47227;46.752;23.576;2023-02-28T01:14:24;22.70;;;14.40;;
61356;SDS011;47227;46.752;23.576;2023-02-28T01:17:55;23.60;;;14.50;;
61356;SDS011;47227;46.752;23.576;2023-02-28T01:21:20;23.50;;;14.50;;
61356;SDS011;47227;46.752;23.576;2023-02-28T01:24:45;19.40;;;13.20;;
61356;SDS011;47227;46.752;23.576;2023-02-28T01:28:07;21.80;;;13.70;;
61356;SDS011;47227;46.752;23.576;2023-02-28T01:31:35;21.50;;;13.50;;
61356;SDS011;47227;46.752;23.576;2023-02-28T01:35:03;18.40;;;11.80;;
61356;SDS011;47227;46.752;23.576;2023-02-28T01:38:31;22.10;;;13.90;;
61356;SDS011;47227;46.752;23.576;2023-02-28T01:42:04;16.70;;;11.10;;
61356;SDS011;47227;46.752;23.576;2023-02-28T01:48:17;16.80;;;10.90;;
61356;SDS011;47227;46.752;23.576;2023-02-28T01:51:30;16.20;;;10.50;;
61356;SDS011;47227;46.752;23.576;2023-02-28T01:54:05;12.40;;;9.90;;
61356;SDS011;47227;46.752;23.576;2023-02-28T01:56:41;13.60;;;10.30;;
61356;SDS011;47227;46.752;23.576;2023-02-28T01:59:14;12.70;;;10.00;;
61356;SDS011;47227;46.752;23.576;2023-02-28T02:01:48;12.50;;;10.10;;
61356;SDS011;47227;46.752;23.576;2023-02-28T02:04:18;12.30;;;10.10;;
61356;SDS011;47227;46.752;23.576;2023-02-28T02:06:47;13.50;;;10.20;;
61356;SDS011;47227;46.752;23.576;2023-02-28T02:09:15;14.20;;;11.00;;
61356;SDS011;47227;46.752;23.576;2023-02-28T02:11:42;14.40;;;10.30;;
61356;SDS011;47227;46.752;23.576;2023-02-28T02:17:09;13.70;;;10.50;;
61356;SDS011;47227;46.752;23.576;2023-02-28T02:19:53;14.00;;;10.50;;
61356;SDS011;47227;46.752;23.576;2023-02-28T02:34:24;13.80;;;9.90;;
61356;SDS011;47227;46.752;23.576;2023-02-28T02:37:02;13.90;;;9.80;;
61356;SDS011;47227;46.752;23.576;2023-02-28T02:39:43;16.20;;;10.80;;
61356;SDS011;47227;46.752;23.576;2023-02-28T02:42:23;14.30;;;10.70;;
61356;SDS011;47227;46.752;23.576;2023-02-28T02:45:00;13.90;;;10.70;;
61356;SDS011;47227;46.752;23.576;2023-02-28T02:47:32;14.50;;;11.10;;
61356;SDS011;47227;46.752;23.576;2023-02-28T02:50:03;14.10;;;10.80;;
61356;SDS011;47227;46.752;23.576;2023-02-28T02:52:34;16.50;;;11.20;;
61356;SDS011;47227;46.752;23.576;2023-02-28T02:55:05;15.10;;;11.30;;
61356;SDS011;47227;46.752;23.576;2023-02-28T02:57:38;14.80;;;11.10;;
61356;SDS011;47227;46.752;23.576;2023-02-28T03:00:13;14.90;;;11.10;;
61356;SDS011;47227;46.752;23.576;2023-02-28T03:02:46;15.80;;;11.00;;
61356;SDS011;47227;46.752;23.576;2023-02-28T03:05:18;12.30;;;9.80;;
61356;SDS011;47227;46.752;23.576;2023-02-28T03:07:49;13.00;;;9.80;;
61356;SDS011;47227;46.752;23.576;2023-02-28T03:10:33;12.90;;;9.60;;
61356;SDS011;47227;46.752;23.576;2023-02-28T03:16:20;11.50;;;9.10;;
61356;SDS011;47227;46.752;23.576;2023-02-28T03:18:55;11.90;;;8.80;;
61356;SDS011;47227;46.752;23.576;2023-02-28T03:21:35;11.70;;;8.80;;
61356;SDS011;47227;46.752;23.576;2023-02-28T03:25:32;11.50;;;9.00;;
61356;SDS011;47227;46.752;23.576;2023-02-28T03:29:08;11.80;;;8.40;;
61356;SDS011;47227;46.752;23.576;2023-02-28T03:32:50;10.70;;;8.70;;
61356;SDS011;47227;46.752;23.576;2023-02-28T03:36:17;11.50;;;8.60;;
61356;SDS011;47227;46.752;23.576;2023-02-28T03:38:50;13.70;;;9.00;;
61356;SDS011;47227;46.752;23.576;2023-02-28T03:41:23;10.30;;;8.80;;
61356;SDS011;47227;46.752;23.576;2023-02-28T03:43:58;11.40;;;9.20;;
61356;SDS011;47227;46.752;23.576;2023-02-28T03:46:31;12.40;;;9.90;;
61356;SDS011;47227;46.752;23.576;2023-02-28T03:49:03;11.80;;;9.60;;
61356;SDS011;47227;46.752;23.576;2023-02-28T03:51:42;12.80;;;10.00;;
61356;SDS011;47227;46.752;23.576;2023-02-28T03:54:12;11.80;;;9.90;;
61356;SDS011;47227;46.752;23.576;2023-02-28T03:56:53;14.00;;;10.40;;
61356;SDS011;47227;46.752;23.576;2023-02-28T03:59:28;13.60;;;10.50;;
61356;SDS011;47227;46.752;23.576;2023-02-28T04:02:03;13.50;;;10.70;;
61356;SDS011;47227;46.752;23.576;2023-02-28T04:04:30;14.60;;;10.60;;
61356;SDS011;47227;46.752;23.576;2023-02-28T04:07:01;15.60;;;11.20;;
61356;SDS011;47227;46.752;23.576;2023-02-28T04:09:30;14.20;;;9.80;;
61356;SDS011;47227;46.752;23.576;2023-02-28T04:11:57;14.20;;;10.90;;
61356;SDS011;47227;46.752;23.576;2023-02-28T04:14:24;13.90;;;11.30;;
61356;SDS011;47227;46.752;23.576;2023-02-28T04:16:51;14.60;;;11.00;;
61356;SDS011;47227;46.752;23.576;2023-02-28T04:19:18;13.30;;;10.70;;
61356;SDS011;47227;46.752;23.576;2023-02-28T04:21:48;14.30;;;11.00;;
61356;SDS011;47227;46.752;23.576;2023-02-28T04:24:18;14.40;;;11.20;;
61356;SDS011;47227;46.752;23.576;2023-02-28T04:26:48;15.50;;;11.50;;
61356;SDS011;47227;46.752;23.576;2023-02-28T04:29:21;14.80;;;11.40;;
61356;SDS011;47227;46.752;23.576;2023-02-28T04:31:50;16.40;;;11.80;;
61356;SDS011;47227;46.752;23.576;2023-02-28T04:34:18;17.60;;;12.40;;
61356;SDS011;47227;46.752;23.576;2023-02-28T04:36:45;19.60;;;11.20;;
61356;SDS011;47227;46.752;23.576;2023-02-28T04:39:28;16.10;;;11.10;;
61356;SDS011;47227;46.752;23.576;2023-02-28T04:41:55;31.10;;;18.50;;
61356;SDS011;47227;46.752;23.576;2023-02-28T04:44:22;26.10;;;16.80;;
61356;SDS011;47227;46.752;23.576;2023-02-28T04:46:48;19.00;;;13.00;;
61356;SDS011;47227;46.752;23.576;2023-02-28T04:49:19;19.10;;;12.60;;
61356;SDS011;47227;46.752;23.576;2023-02-28T04:52:51;20.00;;;12.70;;
61356;SDS011;47227;46.752;23.576;2023-02-28T04:56:40;18.60;;;11.80;;
61356;SDS011;47227;46.752;23.576;2023-02-28T05:00:14;21.60;;;15.00;;
61356;SDS011;47227;46.752;23.576;2023-02-28T05:04:05;21.20;;;14.20;;
61356;SDS011;47227;46.752;23.576;2023-02-28T05:07:55;20.60;;;12.60;;
61356;SDS011;47227;46.752;23.576;2023-02-28T05:11:33;19.50;;;12.40;;
61356;SDS011;47227;46.752;23.576;2023-02-28T05:15:08;19.40;;;13.40;;
61356;SDS011;47227;46.752;23.576;2023-02-28T05:18:42;28.90;;;17.40;;
61356;SDS011;47227;46.752;23.576;2023-02-28T05:25:36;23.40;;;14.60;;
61356;SDS011;47227;46.752;23.576;2023-02-28T05:28:02;21.70;;;14.30;;
61356;SDS011;47227;46.752;23.576;2023-02-28T05:30:29;22.20;;;15.20;;
61356;SDS011;47227;46.752;23.576;2023-02-28T05:32:57;37.90;;;22.70;;
61356;SDS011;47227;46.752;23.576;2023-02-28T05:35:24;31.80;;;18.20;;
61356;SDS011;47227;46.752;23.576;2023-02-28T05:37:52;28.30;;;18.30;;
61356;SDS011;47227;46.752;23.576;2023-02-28T05:40:18;30.20;;;17.90;;
61356;SDS011;47227;46.752;23.576;2023-02-28T05:42:46;26.10;;;17.10;;
61356;SDS011;47227;46.752;23.576;2023-02-28T05:45:13;28.30;;;18.10;;
61356;SDS011;47227;46.752;23.576;2023-02-28T05:47:41;25.90;;;17.50;;
61356;SDS011;47227;46.752;23.576;2023-02-28T05:50:08;26.80;;;16.70;;
61356;SDS011;47227;46.752;23.576;2023-02-28T05:52:36;26.90;;;17.30;;
61356;SDS011;47227;46.752;23.576;2023-02-28T05:55:03;30.60;;;18.10;;
61356;SDS011;47227;46.752;23.576;2023-02-28T05:57:30;25.30;;;16.20;;
61356;SDS011;47227;46.752;23.576;2023-02-28T05:59:57;27.80;;;16.70;;
61356;SDS011;47227;46.752;23.576;2023-02-28T06:02:23;26.20;;;16.00;;
61356;SDS011;47227;46.752;23.576;2023-02-28T06:04:50;21.80;;;13.80;;
61356;SDS011;47227;46.752;23.576;2023-02-28T06:07:16;20.40;;;14.00;;
61356;SDS011;47227;46.752;23.576;2023-02-28T06:09:44;19.20;;;13.70;;
61356;SDS011;47227;46.752;23.576;2023-02-28T06:12:10;18.30;;;12.60;;
61356;SDS011;47227;46.752;23.576;2023-02-28T06:14:37;23.00;;;15.50;;
61356;SDS011;47227;46.752;23.576;2023-02-28T06:18:15;18.60;;;12.80;;
61356;SDS011;47227;46.752;23.576;2023-02-28T06:21:25;20.30;;;13.60;;
61356;SDS011;47227;46.752;23.576;2023-02-28T06:24:20;18.40;;;14.00;;
61356;SDS011;47227;46.752;23.576;2023-02-28T06:27:42;22.70;;;13.90;;
61356;SDS011;47227;46.752;23.576;2023-02-28T06:30:51;19.00;;;13.00;;
61356;SDS011;47227;46.752;23.576;2023-02-28T06:34:40;20.60;;;13.50;;
61356;SDS011;47227;46.752;23.576;2023-02-28T06:37:45;18.80;;;12.90;;
61356;SDS011;47227;46.752;23.576;2023-02-28T06:40:54;21.80;;;14.10;;
61356;SDS011;47227;46.752;23.576;2023-02-28T06:43:23;20.00;;;14.00;;
61356;SDS011;47227;46.752;23.576;2023-02-28T06:45:54;23.00;;;14.80;;
61356;SDS011;47227;46.752;23.576;2023-02-28T06:48:27;28.90;;;16.40;;
61356;SDS011;47227;46.752;23.576;2023-02-28T06:51:59;26.90;;;17.40;;
61356;SDS011;47227;46.752;23.576;2023-02-28T06:55:25;30.30;;;18.40;;
61356;SDS011;47227;46.752;23.576;2023-02-28T06:58:47;25.10;;;16.80;;
61356;SDS011;47227;46.752;23.576;2023-02-28T07:01:57;24.90;;;16.30;;
61356;SDS011;47227;46.752;23.576;2023-02-28T07:05:25;29.20;;;17.40;;
61356;SDS011;47227;46.752;23.576;2023-02-28T07:08:06;31.20;;;20.10;;
61356;SDS011;47227;46.752;23.576;2023-02-28T07:10:38;31.80;;;19.30;;
61356;SDS011;47227;46.752;23.576;2023-02-28T07:13:07;30.80;;;19.10;;
61356;SDS011;47227;46.752;23.576;2023-02-28T07:15:39;35.50;;;19.90;;
61356;SDS011;47227;46.752;23.576;2023-02-28T07:18:16;29.00;;;18.10;;
61356;SDS011;47227;46.752;23.576;2023-02-28T07:20:53;31.40;;;18.80;;
61356;SDS011;47227;46.752;23.576;2023-02-28T07:23:26;28.00;;;18.20;;
61356;SDS011;47227;46.752;23.576;2023-02-28T07:25:55;32.80;;;20.30;;
61356;SDS011;47227;46.752;23.576;2023-02-28T07:28:26;32.30;;;19.90;;
61356;SDS011;47227;46.752;23.576;2023-02-28T07:30:55;36.10;;;22.00;;
61356;SDS011;47227;46.752;23.576;2023-02-28T07:33:23;33.00;;;20.30;;
61356;SDS011;47227;46.752;23.576;2023-02-28T07:36:00;34.60;;;20.80;;
61356;SDS011;47227;46.752;23.576;2023-02-28T07:38:36;31.70;;;19.70;;
61356;SDS011;47227;46.752;23.576;2023-02-28T07:41:06;33.40;;;19.90;;
61356;SDS011;47227;46.752;23.576;2023-02-28T07:43:38;30.00;;;19.60;;
61356;SDS011;47227;46.752;23.576;2023-02-28T07:46:19;28.90;;;18.70;;
61356;SDS011;47227;46.752;23.576;2023-02-28T07:48:53;32.60;;;19.70;;
61356;SDS011;47227;46.752;23.576;2023-02-28T07:51:27;31.40;;;18.00;;
61356;SDS011;47227;46.752;23.576;2023-02-28T07:54:05;29.90;;;18.60;;
61356;SDS011;47227;46.752;23.576;2023-02-28T07:56:34;30.40;;;17.70;;
61356;SDS011;47227;46.752;23.576;2023-02-28T07:59:04;27.50;;;16.70;;
61356;SDS011;47227;46.752;23.576;2023-02-28T08:01:37;28.30;;;18.20;;
61356;SDS011;47227;46.752;23.576;2023-02-28T08:04:07;32.40;;;19.30;;
61356;SDS011;47227;46.752;23.576;2023-02-28T08:06:40;29.70;;;17.80;;
61356;SDS011;47227;46.752;23.576;2023-02-28T08:09:09;33.30;;;20.10;;
61356;SDS011;47227;46.752;23.576;2023-02-28T08:11:40;31.80;;;18.80;;
61356;SDS011;47227;46.752;23.576;2023-02-28T08:14:20;26.30;;;17.00;;
61356;SDS011;47227;46.752;23.576;2023-02-28T08:16:54;26.20;;;16.60;;
61356;SDS011;47227;46.752;23.576;2023-02-28T08:19:25;30.60;;;18.10;;
61356;SDS011;47227;46.752;23.576;2023-02-28T08:21:56;30.30;;;19.10;;
61356;SDS011;47227;46.752;23.576;2023-02-28T08:24:28;25.10;;;16.60;;
61356;SDS011;47227;46.752;23.576;2023-02-28T08:26:57;24.60;;;16.10;;
61356;SDS011;47227;46.752;23.576;2023-02-28T08:29:27;25.00;;;16.00;;
61356;SDS011;47227;46.752;23.576;2023-02-28T08:32:02;27.40;;;17.60;;
61356;SDS011;47227;46.752;23.576;2023-02-28T08:34:53;26.20;;;17.60;;
61356;SDS011;47227;46.752;23.576;2023-02-28T08:37:36;27.60;;;17.00;;
61356;SDS011;47227;46.752;23.576;2023-02-28T08:40:14;25.00;;;16.40;;
61356;SDS011;47227;46.752;23.576;2023-02-28T08:42:58;27.50;;;18.00;;
61356;SDS011;47227;46.752;23.576;2023-02-28T08:45:37;30.70;;;19.40;;
61356;SDS011;47227;46.752;23.576;2023-02-28T08:48:16;31.70;;;18.20;;
61356;SDS011;47227;46.752;23.576;2023-02-28T08:51:00;30.00;;;17.60;;
61356;SDS011;47227;46.752;23.576;2023-02-28T08:53:56;26.60;;;16.60;;
61356;SDS011;47227;46.752;23.576;2023-02-28T08:56:46;25.90;;;17.30;;
61356;SDS011;47227;46.752;23.576;2023-02-28T08:59:37;25.80;;;17.10;;
61356;SDS011;47227;46.752;23.576;2023-02-28T09:04:02;24.50;;;15.50;;
61356;SDS011;47227;46.752;23.576;2023-02-28T09:06:49;30.10;;;18.80;;
61356;SDS011;47227;46.752;23.576;2023-02-28T09:09:36;27.30;;;16.90;;
61356;SDS011;47227;46.752;23.576;2023-02-28T09:12:04;27.50;;;17.50;;
61356;SDS011;47227;46.752;23.576;2023-02-28T09:14:46;31.90;;;18.60;;
61356;SDS011;47227;46.752;23.576;2023-02-28T09:17:27;28.50;;;17.30;;
61356;SDS011;47227;46.752;23.576;2023-02-28T09:20:00;31.10;;;18.20;;
61356;SDS011;47227;46.752;23.576;2023-02-28T09:22:42;28.70;;;18.10;;
61356;SDS011;47227;46.752;23.576;2023-02-28T09:25:21;28.20;;;18.20;;
61356;SDS011;47227;46.752;23.576;2023-02-28T09:27:49;30.70;;;18.80;;
61356;SDS011;47227;46.752;23.576;2023-02-28T09:30:19;32.90;;;19.50;;
61356;SDS011;47227;46.752;23.576;2023-02-28T09:32:49;32.00;;;18.90;;
61356;SDS011;47227;46.752;23.576;2023-02-28T09:35:26;27.60;;;18.00;;
61356;SDS011;47227;46.752;23.576;2023-02-28T09:37:55;31.00;;;18.40;;
61356;SDS011;47227;46.752;23.576;2023-02-28T09:40:30;29.90;;;18.90;;
61356;SDS011;47227;46.752;23.576;2023-02-28T09:43:00;33.80;;;20.90;;
61356;SDS011;47227;46.752;23.576;2023-02-28T09:45:30;35.90;;;21.30;;
61356;SDS011;47227;46.752;23.576;2023-02-28T09:48:20;35.90;;;20.70;;
61356;SDS011;47227;46.752;23.576;2023-02-28T09:50:52;35.80;;;21.20;;
61356;SDS011;47227;46.752;23.576;2023-02-28T09:53:28;37.40;;;21.50;;
61356;SDS011;47227;46.752;23.576;2023-02-28T09:56:03;34.10;;;21.40;;
61356;SDS011;47227;46.752;23.576;2023-02-28T10:01:29;33.70;;;21.00;;
61356;SDS011;47227;46.752;23.576;2023-02-28T10:07:17;40.80;;;22.90;;
61356;SDS011;47227;46.752;23.576;2023-02-28T10:09:53;36.90;;;20.20;;
61356;SDS011;47227;46.752;23.576;2023-02-28T10:12:26;32.70;;;20.50;;
61356;SDS011;47227;46.752;23.576;2023-02-28T10:14:57;33.10;;;20.30;;
61356;SDS011;47227;46.752;23.576;2023-02-28T10:17:30;39.10;;;20.80;;
61356;SDS011;47227;46.752;23.576;2023-02-28T10:20:22;32.70;;;19.70;;
61356;SDS011;47227;46.752;23.576;2023-02-28T10:23:03;32.50;;;19.80;;
61356;SDS011;47227;46.752;23.576;2023-02-28T10:25:40;35.00;;;20.50;;
61356;SDS011;47227;46.752;23.576;2023-02-28T10:28:24;29.10;;;18.80;;
61356;SDS011;47227;46.752;23.576;2023-02-28T10:30:54;41.10;;;20.50;;
61356;SDS011;47227;46.752;23.576;2023-02-28T10:33:25;32.30;;;18.90;;
61356;SDS011;47227;46.752;23.576;2023-02-28T10:35:58;32.00;;;20.20;;
61356;SDS011;47227;46.752;23.576;2023-02-28T10:38:31;33.30;;;19.70;;
61356;SDS011;47227;46.752;23.576;2023-02-28T10:41:10;30.80;;;19.10;;
61356;SDS011;47227;46.752;23.576;2023-02-28T10:43:44;35.50;;;20.00;;
61356;SDS011;47227;46.752;23.576;2023-02-28T10:46:14;32.00;;;20.30;;
61356;SDS011;47227;46.752;23.576;2023-02-28T10:49:00;32.90;;;19.50;;
61356;SDS011;47227;46.752;23.576;2023-02-28T10:51:34;32.10;;;19.50;;
61356;SDS011;47227;46.752;23.576;2023-02-28T10:54:16;35.10;;;19.80;;
61356;SDS011;47227;46.752;23.576;2023-02-28T10:57:05;36.90;;;20.60;;
61356;SDS011;47227;46.752;23.576;2023-02-28T10:59:45;35.70;;;19.10;;
61356;SDS011;47227;46.752;23.576;2023-02-28T11:05:21;36.00;;;21.10;;
61356;SDS011;47227;46.752;23.576;2023-02-28T11:08:02;35.60;;;20.90;;
61356;SDS011;47227;46.752;23.576;2023-02-28T11:10:34;39.00;;;21.20;;
61356;SDS011;47227;46.752;23.576;2023-02-28T11:13:02;37.80;;;22.30;;
61356;SDS011;47227;46.752;23.576;2023-02-28T11:15:33;37.80;;;21.70;;
61356;SDS011;47227;46.752;23.576;2023-02-28T11:18:06;35.00;;;20.60;;
61356;SDS011;47227;46.752;23.576;2023-02-28T11:20:49;29.60;;;19.90;;
61356;SDS011;47227;46.752;23.576;2023-02-28T11:23:20;38.20;;;21.70;;
61356;SDS011;47227;46.752;23.576;2023-02-28T11:25:51;35.40;;;21.30;;
61356;SDS011;47227;46.752;23.576;2023-02-28T11:28:24;38.70;;;22.80;;
61356;SDS011;47227;46.752;23.576;2023-02-28T11:33:47;41.40;;;23.40;;
61356;SDS011;47227;46.752;23.576;2023-02-28T11:36:21;41.90;;;24.10;;
61356;SDS011;47227;46.752;23.576;2023-02-28T11:38:55;42.70;;;24.10;;
61356;SDS011;47227;46.752;23.576;2023-02-28T11:44:43;42.80;;;23.70;;
61356;SDS011;47227;46.752;23.576;2023-02-28T11:47:28;46.20;;;24.40;;
61356;SDS011;47227;46.752;23.576;2023-02-28T11:50:13;47.10;;;27.00;;
61356;SDS011;47227;46.752;23.576;2023-02-28T11:53:00;48.50;;;26.60;;
61356;SDS011;47227;46.752;23.576;2023-02-28T11:55:35;47.70;;;25.80;;
61356;SDS011;47227;46.752;23.576;2023-02-28T11:58:19;43.80;;;24.80;;
61356;SDS011;47227;46.752;23.576;2023-02-28T12:01:09;48.40;;;25.20;;
61356;SDS011;47227;46.752;23.576;2023-02-28T12:03:53;48.60;;;27.70;;
61356;SDS011;47227;46.752;23.576;2023-02-28T12:06:33;50.70;;;26.50;;
61356;SDS011;47227;46.752;23.576;2023-02-28T12:09:14;46.40;;;25.80;;
61356;SDS011;47227;46.752;23.576;2023-02-28T12:21:10;54.60;;;26.40;;
61356;SDS011;47227;46.752;23.576;2023-02-28T12:27:11;50.70;;;27.70;;
61356;SDS011;47227;46.752;23.576;2023-02-28T12:29:49;45.50;;;25.80;;
61356;SDS011;47227;46.752;23.576;2023-02-28T12:44:44;57.70;;;31.90;;
61356;SDS011;47227;46.752;23.576;2023-02-28T12:48:21;52.20;;;28.90;;
61356;SDS011;47227;46.752;23.576;2023-02-28T13:26:22;52.10;;;28.70;;
61356;SDS011;47227;46.752;23.576;2023-02-28T13:29:21;53.60;;;28.30;;
61356;SDS011;47227;46.752;23.576;2023-02-28T13:40:13;50.40;;;28.40;;
61356;SDS011;47227;46.752;23.576;2023-02-28T13:43:32;49.90;;;28.60;;
61356;SDS011;47227;46.752;23.576;2023-02-28T13:46:30;57.20;;;30.10;;
61356;SDS011;47227;46.752;23.576;2023-02-28T13:49:28;52.60;;;29.80;;
61356;SDS011;47227;46.752;23.576;2023-02-28T13:56:23;62.50;;;33.80;;
61356;SDS011;47227;46.752;23.576;2023-02-28T13:59:16;55.90;;;30.90;;
61356;SDS011;47227;46.752;23.576;2023-02-28T14:03:01;48.40;;;28.20;;
61356;SDS011;47227;46.752;23.576;2023-02-28T14:06:17;40.80;;;24.20;;
61356;SDS011;47227;46.752;23.576;2023-02-28T14:09:45;41.00;;;25.10;;
61356;SDS011;47227;46.752;23.576;2023-02-28T14:17:14;37.90;;;22.70;;
61356;SDS011;47227;46.752;23.576;2023-02-28T14:20:47;40.40;;;24.40;;
61356;SDS011;47227;46.752;23.576;2023-02-28T14:24:42;44.80;;;25.10;;
61356;SDS011;47227;46.752;23.576;2023-02-28T14:28:57;44.30;;;24.90;;
61356;SDS011;47227;46.752;23.576;2023-02-28T14:36:57;43.70;;;24.90;;
61356;SDS011;47227;46.752;23.576;2023-02-28T14:40:33;42.70;;;25.40;;
61356;SDS011;47227;46.752;23.576;2023-02-28T14:44:21;48.00;;;28.50;;
61356;SDS011;47227;46.752;23.576;2023-02-28T14:48:08;42.30;;;25.10;;
61356;SDS011;47227;46.752;23.576;2023-02-28T14:51:47;40.30;;;23.70;;
61356;SDS011;47227;46.752;23.576;2023-02-28T14:55:43;45.70;;;25.50;;
61356;SDS011;47227;46.752;23.576;2023-02-28T14:58:56;43.00;;;25.40;;
61356;SDS011;47227;46.752;23.576;2023-02-28T15:09:18;51.60;;;28.30;;
61356;SDS011;47227;46.752;23.576;2023-02-28T15:17:02;42.00;;;23.20;;
61356;SDS011;47227;46.752;23.576;2023-02-28T15:20:11;44.50;;;24.50;;
61356;SDS011;47227;46.752;23.576;2023-02-28T15:28:23;46.00;;;25.10;;
61356;SDS011;47227;46.752;23.576;2023-02-28T15:37:37;43.50;;;23.90;;
61356;SDS011;47227;46.752;23.576;2023-02-28T15:40:30;45.60;;;27.00;;
61356;SDS011;47227;46.752;23.576;2023-02-28T15:43:06;38.20;;;23.20;;
61356;SDS011;47227;46.752;23.576;2023-02-28T15:46:43;44.90;;;25.60;;
61356;SDS011;47227;46.752;23.576;2023-02-28T15:50:31;40.30;;;24.30;;
61356;SDS011;47227;46.752;23.576;2023-02-28T15:54:07;45.60;;;25.90;;
61356;SDS011;47227;46.752;23.576;2023-02-28T15:57:10;38.70;;;24.00;;
61356;SDS011;47227;46.752;23.576;2023-02-28T16:04:18;47.70;;;25.80;;
61356;SDS011;47227;46.752;23.576;2023-02-28T16:08:14;48.80;;;27.20;;
61356;SDS011;47227;46.752;23.576;2023-02-28T16:15:50;49.20;;;27.90;;
61356;SDS011;47227;46.752;23.576;2023-02-28T16:19:19;45.30;;;27.80;;
61356;SDS011;47227;46.752;23.576;2023-02-28T16:22:56;46.20;;;28.60;;
61356;SDS011;47227;46.752;23.576;2023-02-28T16:26:47;47.80;;;28.00;;
61356;SDS011;47227;46.752;23.576;2023-02-28T16:30:46;50.00;;;27.80;;
61356;SDS011;47227;46.752;23.576;2023-02-28T16:34:14;46.30;;;26.70;;
61356;SDS011;47227;46.752;23.576;2023-02-28T16:41:08;49.30;;;27.60;;
61356;SDS011;47227;46.752;23.576;2023-02-28T16:44:54;60.80;;;33.10;;
61356;SDS011;47227;46.752;23.576;2023-02-28T16:48:27;60.00;;;34.10;;
61356;SDS011;47227;46.752;23.576;2023-02-28T16:51:27;51.90;;;29.90;;
61356;SDS011;47227;46.752;23.576;2023-02-28T16:54:25;52.00;;;29.60;;
61356;SDS011;47227;46.752;23.576;2023-02-28T16:58:03;55.90;;;30.80;;
61356;SDS011;47227;46.752;23.576;2023-02-28T17:01:35;47.10;;;25.10;;
61356;SDS011;47227;46.752;23.576;2023-02-28T17:05:16;45.70;;;24.40;;
61356;SDS011;47227;46.752;23.576;2023-02-28T17:09:05;48.20;;;25.30;;
61356;SDS011;47227;46.752;23.576;2023-02-28T17:12:46;42.50;;;22.40;;
61356;SDS011;47227;46.752;23.576;2023-02-28T17:16:07;44.70;;;23.00;;
61356;SDS011;47227;46.752;23.576;2023-02-28T17:18:45;50.30;;;25.00;;
61356;SDS011;47227;46.752;23.576;2023-02-28T17:21:14;41.20;;;23.50;;
61356;SDS011;47227;46.752;23.576;2023-02-28T17:23:43;50.70;;;25.90;;
61356;SDS011;47227;46.752;23.576;2023-02-28T17:26:13;54.70;;;30.10;;
61356;SDS011;47227;46.752;23.576;2023-02-28T17:28:43;45.40;;;26.20;;
61356;SDS011;47227;46.752;23.576;2023-02-28T17:31:12;45.40;;;26.50;;
61356;SDS011;47227;46.752;23.576;2023-02-28T17:33:41;51.00;;;28.20;;
61356;SDS011;47227;46.752;23.576;2023-02-28T17:36:12;50.80;;;29.50;;
61356;SDS011;47227;46.752;23.576;2023-02-28T17:38:42;49.20;;;29.00;;
61356;SDS011;47227;46.752;23.576;2023-02-28T17:41:11;55.10;;;30.80;;
61356;SDS011;47227;46.752;23.576;2023-02-28T17:43:39;55.20;;;31.60;;
61356;SDS011;47227;46.752;23.576;2023-02-28T17:46:13;49.00;;;28.70;;
61356;SDS011;47227;46.752;23.576;2023-02-28T17:48:46;51.40;;;30.20;;
61356;SDS011;47227;46.752;23.576;2023-02-28T17:51:16;52.20;;;29.50;;
61356;SDS011;47227;46.752;23.576;2023-02-28T17:53:46;56.30;;;32.60;;
61356;SDS011;47227;46.752;23.576;2023-02-28T17:56:16;45.80;;;25.50;;
61356;SDS011;47227;46.752;23.576;2023-02-28T17:58:48;47.20;;;26.80;;
61356;SDS011;47227;46.752;23.576;2023-02-28T18:01:18;50.40;;;29.20;;
61356;SDS011;47227;46.752;23.576;2023-02-28T18:03:47;56.60;;;31.20;;
61356;SDS011;47227;46.752;23.576;2023-02-28T18:06:18;55.90;;;31.20;;
61356;SDS011;47227;46.752;23.576;2023-02-28T18:08:49;64.30;;;33.50;;
61356;SDS011;47227;46.752;23.576;2023-02-28T18:11:20;63.10;;;34.60;;
61356;SDS011;47227;46.752;23.576;2023-02-28T18:13:50;65.40;;;33.60;;
61356;SDS011;47227;46.752;23.576;2023-02-28T18:16:20;61.60;;;33.30;;
61356;SDS011;47227;46.752;23.576;2023-02-28T18:18:49;62.20;;;34.50;;
61356;SDS011;47227;46.752;23.576;2023-02-28T18:21:17;61.10;;;34.10;;
61356;SDS011;47227;46.752;23.576;2023-02-28T18:23:45;66.20;;;34.70;;
61356;SDS011;47227;46.752;23.576;2023-02-28T18:26:15;64.30;;;34.90;;
61356;SDS011;47227;46.752;23.576;2023-02-28T18:28:45;65.90;;;33.30;;
61356;SDS011;47227;46.752;23.576;2023-02-28T18:31:15;58.50;;;31.10;;
61356;SDS011;47227;46.752;23.576;2023-02-28T18:33:47;58.20;;;29.60;;
61356;SDS011;47227;46.752;23.576;2023-02-28T18:36:18;61.70;;;31.60;;
61356;SDS011;47227;46.752;23.576;2023-02-28T18:38:47;59.00;;;30.80;;
61356;SDS011;47227;46.752;23.576;2023-02-28T18:41:17;54.90;;;30.50;;
61356;SDS011;47227;46.752;23.576;2023-02-28T18:43:48;57.20;;;28.60;;
61356;SDS011;47227;46.752;23.576;2023-02-28T18:46:19;49.10;;;27.70;;
61356;SDS011;47227;46.752;23.576;2023-02-28T18:48:48;53.80;;;29.40;;
61356;SDS011;47227;46.752;23.576;2023-02-28T18:51:18;54.90;;;29.30;;
61356;SDS011;47227;46.752;23.576;2023-02-28T18:53:48;48.40;;;25.50;;
61356;SDS011;47227;46.752;23.576;2023-02-28T18:56:18;58.80;;;28.20;;
61356;SDS011;47227;46.752;23.576;2023-02-28T18:58:50;53.80;;;29.40;;